Time;durP1;ratioP1;P1;durP2;ratioP2;P2;SDS_P1;SDS_P2;PMS_P1;PMS_P2;Temp;Humidity;BMP_temperature;BMP_pressure;BME280_temperature;BME280_humidity;BME280_pressure;Samples;Min_cycle;Max_cycle;Signal;HPM_P1;HPM_P2
2022/02/13 00:01:01;;;;;;;8.25;2.65;;;;;;;;;;5094425;28;20075;-77
2022/02/13 00:03:28;;;;;;;6.07;3.03;;;;;;;;;;5094506;28;20415;-77
2022/02/13 00:05:55;;;;;;;6.57;3.17;;;;;;;;;;5094627;28;20036;-77
2022/02/13 00:08:21;;;;;;;6.60;3.47;;;;;;;;;;5093381;28;20071;-77
2022/02/13 00:10:49;;;;;;;7.60;2.95;;;;;;;;;;5094362;28;20072;-77
2022/02/13 00:13:16;;;;;;;5.65;3.25;;;;;;;;;;5094480;28;20044;-77
2022/02/13 00:15:42;;;;;;;7.70;3.05;;;;;;;;;;5093803;28;20082;-77
2022/02/13 00:18:09;;;;;;;6.25;3.05;;;;;;;;;;5094677;28;20063;-75
2022/02/13 00:20:36;;;;;;;6.32;2.95;;;;;;;;;;5093788;28;20094;-76
2022/02/13 00:23:02;;;;;;;5.65;2.83;;;;;;;;;;5094328;28;20044;-76
2022/02/13 00:25:29;;;;;;;6.45;2.75;;;;;;;;;;5094342;28;20075;-77
2022/02/13 00:27:57;;;;;;;4.55;2.63;;;;;;;;;;5094420;28;20072;-76
2022/02/13 00:30:23;;;;;;;6.15;3.20;;;;;;;;;;5093517;28;20075;-76
2022/02/13 00:32:51;;;;;;;4.50;2.70;;;;;;;;;;5094393;28;20372;-76
2022/02/13 00:35:18;;;;;;;5.07;3.13;;;;;;;;;;5094284;28;20040;-76
2022/02/13 00:37:44;;;;;;;6.68;3.00;;;;;;;;;;5093494;28;20087;-76
2022/02/13 00:40:11;;;;;;;4.80;2.60;;;;;;;;;;5094299;28;20074;-76
2022/02/13 00:42:38;;;;;;;7.35;3.20;;;;;;;;;;5094009;28;20075;-76
2022/02/13 00:45:09;;;;;;;5.30;2.83;;;;;;;;;;5093362;28;20136;-76
2022/02/13 00:47:36;;;;;;;5.15;2.90;;;;;;;;;;5093001;28;20040;-76
2022/02/13 00:50:03;;;;;;;6.10;3.63;;;;;;;;;;5094262;28;20090;-75
2022/02/13 00:52:36;;;;;;;6.25;3.45;;;;;;;;;;5093964;28;20094;-76
2022/02/13 00:55:03;;;;;;;5.97;2.78;;;;;;;;;;5097874;28;20040;-76
2022/02/13 00:57:29;;;;;;;7.35;3.03;;;;;;;;;;5096839;28;20075;-76
2022/02/13 00:59:56;;;;;;;6.88;3.03;;;;;;;;;;5096660;28;20473;-76
2022/02/13 01:02:23;;;;;;;5.32;3.10;;;;;;;;;;5097805;28;20083;-76
2022/02/13 01:04:50;;;;;;;5.75;2.83;;;;;;;;;;5096680;28;20484;-76
2022/02/13 01:07:17;;;;;;;4.82;3.15;;;;;;;;;;5098374;28;20083;-77
2022/02/13 01:09:43;;;;;;;4.05;2.30;;;;;;;;;;5096703;28;20468;-76
2022/02/13 01:12:11;;;;;;;5.30;3.00;;;;;;;;;;5097378;28;20082;-76
2022/02/13 01:14:37;;;;;;;4.60;2.78;;;;;;;;;;5097469;28;20075;-76
2022/02/13 01:17:04;;;;;;;7.25;2.47;;;;;;;;;;5097803;28;20043;-76
2022/02/13 01:19:32;;;;;;;5.40;2.60;;;;;;;;;;5097504;28;20086;-76
2022/02/13 01:22:03;;;;;;;7.07;2.72;;;;;;;;;;5097559;28;20036;-76
2022/02/13 01:24:29;;;;;;;4.93;2.78;;;;;;;;;;5097420;28;20044;-76
2022/02/13 01:26:56;;;;;;;4.65;2.53;;;;;;;;;;5097127;28;20465;-76
2022/02/13 01:29:22;;;;;;;4.97;1.90;;;;;;;;;;5096521;28;20078;-76
2022/02/13 01:31:50;;;;;;;5.55;2.70;;;;;;;;;;5097013;28;20090;-76
2022/02/13 01:34:18;;;;;;;5.75;2.88;;;;;;;;;;5097224;28;20078;-76
2022/02/13 01:36:46;;;;;;;6.00;3.05;;;;;;;;;;5097797;28;20094;-76
2022/02/13 01:39:12;;;;;;;4.88;2.35;;;;;;;;;;5096004;28;20530;-77
2022/02/13 01:41:39;;;;;;;5.00;2.63;;;;;;;;;;5095896;28;20040;-76
2022/02/13 01:44:06;;;;;;;5.40;2.53;;;;;;;;;;5096976;28;20090;-76
2022/02/13 01:46:33;;;;;;;6.00;2.30;;;;;;;;;;5096499;28;20079;-76
2022/02/13 01:48:59;;;;;;;5.40;2.65;;;;;;;;;;5096173;28;20076;-76
2022/02/13 01:51:26;;;;;;;7.03;2.78;;;;;;;;;;5096933;28;20040;-76
2022/02/13 01:53:54;;;;;;;3.67;2.13;;;;;;;;;;5096253;28;20044;-76
2022/02/13 01:56:20;;;;;;;4.53;2.90;;;;;;;;;;5096708;28;20090;-76
2022/02/13 01:58:47;;;;;;;5.13;2.58;;;;;;;;;;5096803;28;20043;-76
2022/02/13 02:01:13;;;;;;;6.80;3.10;;;;;;;;;;5095920;28;20075;-76
2022/02/13 02:03:40;;;;;;;5.30;2.80;;;;;;;;;;5096127;28;20059;-76
2022/02/13 02:06:06;;;;;;;6.90;3.10;;;;;;;;;;5095814;28;20082;-76
2022/02/13 02:08:33;;;;;;;5.45;2.15;;;;;;;;;;5095376;28;20538;-76
2022/02/13 02:11:01;;;;;;;5.10;2.58;;;;;;;;;;5095441;28;20083;-76
2022/02/13 02:13:27;;;;;;;6.28;2.92;;;;;;;;;;5096506;28;20432;-76
2022/02/13 02:15:54;;;;;;;6.15;2.75;;;;;;;;;;5095506;28;20075;-76
2022/02/13 02:18:20;;;;;;;6.30;2.80;;;;;;;;;;5096344;28;20068;-76
2022/02/13 02:20:48;;;;;;;7.30;2.83;;;;;;;;;;5096082;28;20067;-76
2022/02/13 02:23:16;;;;;;;5.97;2.80;;;;;;;;;;5095397;28;20048;-76
2022/02/13 02:25:42;;;;;;;4.57;2.38;;;;;;;;;;5096238;28;20051;-76
2022/02/13 02:28:09;;;;;;;5.60;2.88;;;;;;;;;;5095066;28;20484;-76
2022/02/13 02:30:35;;;;;;;3.88;2.13;;;;;;;;;;5096110;28;20086;-76
2022/02/13 02:33:02;;;;;;;6.38;3.22;;;;;;;;;;5095808;28;20102;-76
2022/02/13 02:35:30;;;;;;;6.75;2.95;;;;;;;;;;5096017;28;20044;-76
2022/02/13 02:37:56;;;;;;;6.05;2.63;;;;;;;;;;5094879;28;20463;-76
2022/02/13 02:40:24;;;;;;;7.00;3.03;;;;;;;;;;5094870;28;20076;-76
2022/02/13 02:42:51;;;;;;;6.03;2.92;;;;;;;;;;5095883;28;20169;-76
2022/02/13 02:45:17;;;;;;;6.50;3.40;;;;;;;;;;5094941;28;20091;-77
2022/02/13 02:47:44;;;;;;;4.88;2.70;;;;;;;;;;5094536;28;20480;-76
2022/02/13 02:50:11;;;;;;;6.15;3.55;;;;;;;;;;5094679;28;20071;-76
2022/02/13 02:52:38;;;;;;;4.90;2.40;;;;;;;;;;5095695;28;20040;-76
2022/02/13 02:55:05;;;;;;;6.10;2.90;;;;;;;;;;5095592;28;20035;-76
2022/02/13 02:57:33;;;;;;;6.90;2.60;;;;;;;;;;5094500;28;20076;-76
2022/02/13 02:59:59;;;;;;;5.90;2.50;;;;;;;;;;5095652;28;20044;-76
2022/02/13 03:02:26;;;;;;;4.60;2.50;;;;;;;;;;5095205;28;20072;-77
2022/02/13 03:04:53;;;;;;;4.78;2.38;;;;;;;;;;5094419;28;20087;-76
2022/02/13 03:07:19;;;;;;;6.25;2.22;;;;;;;;;;5095481;28;20072;-76
2022/02/13 03:09:46;;;;;;;5.00;2.47;;;;;;;;;;5095263;28;20068;-76
2022/02/13 03:12:12;;;;;;;6.60;2.67;;;;;;;;;;5094167;28;20078;-76
2022/02/13 03:14:41;;;;;;;8.90;2.92;;;;;;;;;;5095009;28;20072;-76
2022/02/13 03:17:08;;;;;;;6.90;2.47;;;;;;;;;;5093807;28;20074;-76
2022/02/13 03:19:34;;;;;;;7.63;2.47;;;;;;;;;;5095215;28;20079;-76
2022/02/13 03:22:01;;;;;;;7.47;3.63;;;;;;;;;;5094055;28;20071;-76
2022/02/13 03:24:27;;;;;;;8.23;3.25;;;;;;;;;;5093934;28;20488;-76
2022/02/13 03:26:54;;;;;;;5.55;2.75;;;;;;;;;;5094878;28;20048;-76
2022/02/13 03:29:20;;;;;;;4.63;2.60;;;;;;;;;;5094025;28;20503;-76
2022/02/13 03:31:49;;;;;;;4.47;2.42;;;;;;;;;;5094480;28;20143;-76
2022/02/13 03:34:15;;;;;;;4.25;2.50;;;;;;;;;;5094975;28;20035;-76
2022/02/13 03:36:42;;;;;;;4.85;1.90;;;;;;;;;;5094913;28;20086;-76
2022/02/13 03:39:09;;;;;;;4.68;2.20;;;;;;;;;;5095002;28;20078;-76
2022/02/13 03:41:35;;;;;;;5.13;2.60;;;;;;;;;;5094879;28;20090;-76
2022/02/13 03:44:02;;;;;;;4.00;2.08;;;;;;;;;;5093248;28;20503;-77
2022/02/13 03:46:28;;;;;;;16.30;4.93;;;;;;;;;;5094626;28;20068;-76
2022/02/13 03:48:56;;;;;;;10.25;3.45;;;;;;;;;;5093872;28;20072;-76
2022/02/13 03:51:23;;;;;;;7.00;3.55;;;;;;;;;;5094749;28;20040;-76
2022/02/13 03:53:50;;;;;;;4.57;2.60;;;;;;;;;;5094794;28;20046;-76
2022/02/13 03:56:16;;;;;;;4.65;2.20;;;;;;;;;;5093495;28;20078;-76
2022/02/13 03:58:43;;;;;;;5.63;2.55;;;;;;;;;;5093829;28;20087;-76
2022/02/13 04:01:10;;;;;;;5.32;2.30;;;;;;;;;;5094716;28;20428;-76
2022/02/13 04:03:36;;;;;;;3.92;2.10;;;;;;;;;;5094633;28;20105;-76
2022/02/13 04:06:04;;;;;;;5.30;2.03;;;;;;;;;;5093791;28;20425;-76
2022/02/13 04:08:31;;;;;;;4.57;2.20;;;;;;;;;;5094365;28;20039;-76
2022/02/13 04:10:58;;;;;;;4.93;1.90;;;;;;;;;;5094300;28;20119;-76
2022/02/13 04:13:25;;;;;;;5.80;2.90;;;;;;;;;;5094293;28;20160;-76
2022/02/13 04:15:52;;;;;;;5.00;1.90;;;;;;;;;;5094207;28;20432;-76
2022/02/13 04:18:19;;;;;;;3.88;2.10;;;;;;;;;;5093332;28;20512;-76
2022/02/13 04:20:46;;;;;;;3.63;1.58;;;;;;;;;;5094526;28;20415;-76
2022/02/13 04:23:13;;;;;;;3.65;1.83;;;;;;;;;;5094141;28;20067;-76
2022/02/13 04:25:40;;;;;;;4.00;1.80;;;;;;;;;;5094394;28;20044;-76
2022/02/13 04:28:07;;;;;;;4.25;1.83;;;;;;;;;;5095313;28;20071;-76
2022/02/13 04:30:33;;;;;;;4.50;2.00;;;;;;;;;;5098174;28;20044;-77
2022/02/13 04:33:00;;;;;;;3.63;1.80;;;;;;;;;;5097460;28;20082;-76
2022/02/13 04:35:27;;;;;;;5.05;2.30;;;;;;;;;;5098217;28;20083;-76
2022/02/13 04:37:55;;;;;;;4.32;1.83;;;;;;;;;;5098060;28;20044;-76
2022/02/13 04:40:24;;;;;;;3.67;1.85;;;;;;;;;;5098323;28;20067;-76
2022/02/13 04:42:51;;;;;;;4.38;1.83;;;;;;;;;;5098278;28;20040;-76
2022/02/13 04:45:17;;;;;;;4.43;2.00;;;;;;;;;;5096883;28;20075;-76
2022/02/13 04:47:44;;;;;;;5.03;1.88;;;;;;;;;;5097082;28;20079;-76
2022/02/13 04:50:11;;;;;;;6.22;2.55;;;;;;;;;;5097850;28;20129;-76
2022/02/13 04:52:37;;;;;;;4.03;1.83;;;;;;;;;;5098049;28;20079;-76
2022/02/13 04:55:05;;;;;;;3.70;1.95;;;;;;;;;;5097666;28;20094;-76
2022/02/13 04:57:33;;;;;;;4.20;1.92;;;;;;;;;;5097120;28;20082;-76
2022/02/13 04:59:59;;;;;;;4.60;2.00;;;;;;;;;;5096883;28;20127;-76
2022/02/13 05:02:26;;;;;;;3.55;1.70;;;;;;;;;;5097839;28;20040;-76
2022/02/13 05:04:52;;;;;;;4.65;1.70;;;;;;;;;;5097625;28;20071;-76
2022/02/13 05:07:19;;;;;;;3.22;1.83;;;;;;;;;;5096647;28;20542;-76
2022/02/13 05:09:45;;;;;;;4.57;1.52;;;;;;;;;;5097692;28;20071;-76
2022/02/13 05:12:12;;;;;;;3.45;1.60;;;;;;;;;;5097471;28;20094;-77
2022/02/13 05:14:40;;;;;;;6.13;1.70;;;;;;;;;;5097660;28;20078;-76
2022/02/13 05:17:07;;;;;;;3.90;1.63;;;;;;;;;;5097000;28;20044;-76
2022/02/13 05:19:33;;;;;;;4.38;2.15;;;;;;;;;;5097306;28;20090;-76
2022/02/13 05:22:00;;;;;;;3.20;1.63;;;;;;;;;;5096475;28;20079;-76
2022/02/13 05:24:27;;;;;;;3.25;1.60;;;;;;;;;;5097492;28;20072;-76
2022/02/13 05:26:53;;;;;;;3.53;2.05;;;;;;;;;;5096532;28;20071;-76
2022/02/13 05:29:20;;;;;;;4.47;1.33;;;;;;;;;;5096238;28;20139;-76
2022/02/13 05:31:48;;;;;;;2.45;1.38;;;;;;;;;;5096209;28;20094;-76
2022/02/13 05:34:15;;;;;;;4.80;1.75;;;;;;;;;;5096965;28;20048;-76
2022/02/13 05:36:43;;;;;;;3.28;1.40;;;;;;;;;;5096898;28;20066;-76
2022/02/13 05:39:09;;;;;;;3.80;1.60;;;;;;;;;;5095625;28;20044;-76
2022/02/13 05:41:36;;;;;;;2.72;1.42;;;;;;;;;;5096477;28;20043;-76
2022/02/13 05:44:09;;;;;;;4.55;1.85;;;;;;;;;;5095634;28;20432;-77
2022/02/13 05:46:36;;;;;;;5.45;1.88;;;;;;;;;;5096864;28;20075;-77
2022/02/13 05:49:04;;;;;;;3.35;1.45;;;;;;;;;;5095905;28;20492;-77
2022/02/13 05:51:30;;;;;;;3.30;1.30;;;;;;;;;;5096189;28;20135;-77
2022/02/13 05:53:57;;;;;;;2.67;1.08;;;;;;;;;;5096669;28;20075;-77
2022/02/13 05:56:25;;;;;;;2.47;1.45;;;;;;;;;;5096773;28;20080;-77
2022/02/13 05:58:52;;;;;;;3.97;1.10;;;;;;;;;;5096560;28;20082;-77
2022/02/13 06:01:18;;;;;;;2.92;1.40;;;;;;;;;;5096523;28;20067;-77
2022/02/13 06:03:45;;;;;;;2.67;1.42;;;;;;;;;;5095760;28;20075;-76
2022/02/13 06:06:13;;;;;;;1.83;1.10;;;;;;;;;;5096621;28;20071;-76
2022/02/13 06:08:40;;;;;;;5.32;2.70;;;;;;;;;;5096693;28;20067;-76
2022/02/13 06:11:07;;;;;;;3.78;1.70;;;;;;;;;;5096567;28;20075;-76
2022/02/13 06:13:34;;;;;;;2.08;1.45;;;;;;;;;;5096400;28;20075;-76
2022/02/13 06:16:01;;;;;;;5.07;1.83;;;;;;;;;;5096980;28;20051;-77
2022/02/13 06:18:28;;;;;;;3.78;1.40;;;;;;;;;;5095248;28;20043;-77
2022/02/13 06:20:54;;;;;;;3.08;1.40;;;;;;;;;;5096450;28;20431;-77
2022/02/13 06:23:22;;;;;;;3.60;1.45;;;;;;;;;;5095182;28;20488;-77
2022/02/13 06:25:49;;;;;;;3.72;1.75;;;;;;;;;;5095906;28;20078;-77
2022/02/13 06:28:15;;;;;;;3.08;1.42;;;;;;;;;;5095038;28;20078;-77
2022/02/13 06:30:43;;;;;;;3.72;1.48;;;;;;;;;;5096052;28;20074;-76
2022/02/13 06:33:09;;;;;;;2.97;1.33;;;;;;;;;;5096006;28;20068;-76
2022/02/13 06:35:36;;;;;;;2.35;1.25;;;;;;;;;;5095655;28;20040;-77
2022/02/13 06:38:03;;;;;;;2.90;1.52;;;;;;;;;;5094717;28;20043;-77
2022/02/13 06:40:31;;;;;;;2.38;0.98;;;;;;;;;;5095851;28;20079;-76
2022/02/13 06:42:57;;;;;;;4.03;1.40;;;;;;;;;;5094725;28;20075;-76
2022/02/13 06:45:24;;;;;;;3.45;1.90;;;;;;;;;;5095046;28;20086;-76
2022/02/13 06:47:52;;;;;;;3.97;1.05;;;;;;;;;;5095001;28;20071;-77
2022/02/13 06:50:18;;;;;;;10.20;2.00;;;;;;;;;;5095361;28;20040;-76
2022/02/13 06:52:45;;;;;;;5.30;1.30;;;;;;;;;;5094371;28;20483;-76
2022/02/13 06:55:11;;;;;;;2.63;1.38;;;;;;;;;;5095571;28;20078;-76
2022/02/13 06:57:45;;;;;;;3.55;1.45;;;;;;;;;;5095178;28;20075;-76
2022/02/13 07:00:12;;;;;;;2.70;1.50;;;;;;;;;;5095454;28;20071;-76
2022/02/13 07:02:39;;;;;;;3.28;1.98;;;;;;;;;;5094304;28;20040;-77
2022/02/13 07:05:06;;;;;;;4.30;1.73;;;;;;;;;;5094221;28;20503;-76
2022/02/13 07:07:33;;;;;;;5.00;2.20;;;;;;;;;;5095386;28;20102;-76
2022/02/13 07:09:59;;;;;;;5.25;1.80;;;;;;;;;;5095398;28;20090;-76
2022/02/13 07:12:26;;;;;;;3.00;1.48;;;;;;;;;;5094117;28;20495;-76
2022/02/13 07:14:53;;;;;;;4.47;1.63;;;;;;;;;;5095115;28;20082;-76
2022/02/13 07:17:20;;;;;;;5.25;1.90;;;;;;;;;;5095006;28;20071;-76
2022/02/13 07:19:46;;;;;;;7.97;3.58;;;;;;;;;;5094592;28;20068;-78
2022/02/13 07:22:13;;;;;;;10.85;4.85;;;;;;;;;;5093476;28;20071;-77
2022/02/13 07:24:40;;;;;;;15.48;6.65;;;;;;;;;;5097753;28;20112;-76
2022/02/13 07:27:07;;;;;;;33.20;16.23;;;;;;;;;;5114708;28;20101;-76
2022/02/13 07:29:34;;;;;;;29.95;12.77;;;;;;;;;;5114664;28;20043;-76
2022/02/13 07:32:03;;;;;;;20.20;10.13;;;;;;;;;;5114680;28;20066;-76
2022/02/13 07:34:29;;;;;;;7.28;4.43;;;;;;;;;;5114519;28;20039;-76
2022/02/13 07:37:01;;;;;;;4.75;2.22;;;;;;;;;;5114118;28;20454;-76
2022/02/13 07:39:28;;;;;;;5.00;2.17;;;;;;;;;;5114424;28;20126;-76
2022/02/13 07:41:54;;;;;;;4.95;1.90;;;;;;;;;;5113615;28;20075;-76
2022/02/13 07:44:21;;;;;;;8.18;2.90;;;;;;;;;;5113900;28;20067;-77
2022/02/13 07:46:47;;;;;;;7.28;2.63;;;;;;;;;;5113346;28;20491;-77
2022/02/13 07:49:15;;;;;;;8.05;3.85;;;;;;;;;;5114805;28;20067;-76
2022/02/13 07:51:43;;;;;;;11.00;4.63;;;;;;;;;;5114729;28;20168;-76
2022/02/13 07:54:09;;;;;;;10.27;4.93;;;;;;;;;;5114435;28;20083;-76
2022/02/13 07:56:36;;;;;;;13.35;5.88;;;;;;;;;;5114515;28;20083;-76
2022/02/13 07:59:04;;;;;;;14.38;7.82;;;;;;;;;;5114471;28;20425;-77
2022/02/13 08:01:30;;;;;;;14.27;8.20;;;;;;;;;;5114164;28;20067;-76
2022/02/13 08:03:57;;;;;;;15.23;8.18;;;;;;;;;;5113914;28;20101;-76
2022/02/13 08:06:25;;;;;;;11.18;6.10;;;;;;;;;;5114099;28;20043;-76
2022/02/13 08:08:52;;;;;;;10.27;6.60;;;;;;;;;;5102728;28;20044;-77
2022/02/13 08:11:19;;;;;;;10.63;8.00;;;;;;;;;;5093777;28;20071;-76
2022/02/13 08:13:47;;;;;;;14.35;8.77;;;;;;;;;;5093852;28;20072;-76
2022/02/13 08:16:14;;;;;;;11.18;6.88;;;;;;;;;;5093043;28;20075;-76
2022/02/13 08:18:41;;;;;;;14.52;7.43;;;;;;;;;;5093628;28;20094;-76
2022/02/13 08:21:08;;;;;;;16.98;7.35;;;;;;;;;;5093555;28;20368;-76
2022/02/13 08:23:36;;;;;;;13.20;6.45;;;;;;;;;;5093684;28;20072;-76
2022/02/13 08:26:03;;;;;;;12.13;6.38;;;;;;;;;;5092763;28;20099;-76
2022/02/13 08:28:31;;;;;;;10.10;5.05;;;;;;;;;;5093349;28;20075;-76
2022/02/13 08:30:57;;;;;;;11.18;5.03;;;;;;;;;;5093489;28;20426;-76
2022/02/13 08:33:24;;;;;;;23.65;6.68;;;;;;;;;;5093841;28;20086;-76
2022/02/13 08:35:51;;;;;;;13.00;6.53;;;;;;;;;;5092946;28;20079;-76
2022/02/13 08:38:17;;;;;;;12.25;5.00;;;;;;;;;;5092844;28;20082;-76
2022/02/13 08:40:45;;;;;;;7.30;3.92;;;;;;;;;;5093859;28;20087;-76
2022/02/13 08:43:12;;;;;;;6.68;3.88;;;;;;;;;;5092852;28;20082;-76
2022/02/13 08:45:39;;;;;;;9.30;4.50;;;;;;;;;;5092738;28;20087;-77
2022/02/13 08:48:06;;;;;;;10.05;4.00;;;;;;;;;;5092833;28;20586;-77
2022/02/13 08:50:32;;;;;;;14.68;4.57;;;;;;;;;;5092830;28;20078;-76
2022/02/13 08:52:59;;;;;;;11.18;6.25;;;;;;;;;;5092693;28;20081;-77
2022/02/13 08:55:26;;;;;;;10.07;4.13;;;;;;;;;;5093645;28;20345;-77
2022/02/13 08:57:54;;;;;;;7.45;3.70;;;;;;;;;;5093620;28;20076;-76
2022/02/13 09:00:21;;;;;;;4.28;2.80;;;;;;;;;;5092687;28;20481;-77
2022/02/13 09:02:47;;;;;;;6.07;2.67;;;;;;;;;;5093467;28;20094;-77
2022/02/13 09:05:14;;;;;;;6.35;2.53;;;;;;;;;;5093188;28;20133;-77
2022/02/13 09:07:42;;;;;;;5.80;3.30;;;;;;;;;;5093559;28;20134;-77
2022/02/13 09:10:11;;;;;;;5.05;3.33;;;;;;;;;;5092380;28;20439;-77
2022/02/13 09:12:38;;;;;;;5.97;3.10;;;;;;;;;;5093541;28;20040;-77
2022/02/13 09:15:07;;;;;;;7.15;3.55;;;;;;;;;;5094569;28;20082;-76
2022/02/13 09:17:33;;;;;;;6.60;3.30;;;;;;;;;;5096070;28;20366;-77
2022/02/13 09:20:00;;;;;;;6.60;3.72;;;;;;;;;;5096279;28;20063;-77
2022/02/13 09:22:27;;;;;;;4.43;3.15;;;;;;;;;;5095956;28;20424;-77
2022/02/13 09:24:53;;;;;;;6.63;3.53;;;;;;;;;;5096927;28;20075;-77
2022/02/13 09:27:20;;;;;;;12.18;3.35;;;;;;;;;;5097152;28;20075;-77
2022/02/13 09:29:46;;;;;;;9.82;2.90;;;;;;;;;;5096911;28;20391;-76
2022/02/13 09:32:15;;;;;;;6.53;2.78;;;;;;;;;;5096071;28;20078;-77
2022/02/13 09:34:41;;;;;;;7.68;3.53;;;;;;;;;;5095793;28;20559;-77
2022/02/13 09:37:08;;;;;;;7.20;3.20;;;;;;;;;;5096743;28;20072;-76
2022/02/13 09:39:35;;;;;;;6.82;3.08;;;;;;;;;;5096422;28;20071;-76
2022/02/13 09:42:01;;;;;;;7.78;3.20;;;;;;;;;;5095562;28;20082;-77
2022/02/13 09:44:28;;;;;;;8.57;3.22;;;;;;;;;;5095680;28;20062;-78
2022/02/13 09:46:54;;;;;;;8.02;3.33;;;;;;;;;;5096191;28;20044;-77
2022/02/13 09:49:23;;;;;;;9.15;5.28;;;;;;;;;;5096158;28;20071;-75
2022/02/13 09:51:50;;;;;;;9.40;4.85;;;;;;;;;;5095487;28;20067;-75
2022/02/13 09:54:16;;;;;;;8.80;4.07;;;;;;;;;;5095244;28;20052;-75
2022/02/13 09:56:43;;;;;;;8.27;3.70;;;;;;;;;;5095888;28;20531;-75
2022/02/13 09:59:10;;;;;;;7.00;3.33;;;;;;;;;;5096080;28;20044;-74
2022/02/13 10:01:38;;;;;;;7.40;3.90;;;;;;;;;;5095239;28;20082;-76
2022/02/13 10:04:05;;;;;;;5.40;3.33;;;;;;;;;;5095634;28;20097;-75
2022/02/13 10:06:36;;;;;;;6.15;3.13;;;;;;;;;;5095934;28;20044;-75
2022/02/13 10:09:03;;;;;;;6.20;3.00;;;;;;;;;;5094926;28;20078;-75
2022/02/13 10:11:33;;;;;;;5.90;3.60;;;;;;;;;;5095810;28;20040;-75
2022/02/13 10:14:01;;;;;;;6.60;3.97;;;;;;;;;;5095786;28;20123;-75
2022/02/13 10:16:30;;;;;;;6.57;3.40;;;;;;;;;;5095704;28;20067;-75
2022/02/13 10:18:58;;;;;;;6.40;3.17;;;;;;;;;;5095163;28;20090;-75
2022/02/13 10:21:39;;;;;;;8.65;3.38;;;;;;;;;;5095910;28;20036;-75
2022/02/13 10:24:16;;;;;;;8.10;3.53;;;;;;;;;;5095855;28;20040;-76
2022/02/13 10:26:43;;;;;;;7.18;3.65;;;;;;;;;;5095324;28;20413;-76
2022/02/13 10:29:11;;;;;;;7.65;4.03;;;;;;;;;;5097680;28;20047;-79
2022/02/13 10:31:37;;;;;;;9.07;3.15;;;;;;;;;;5102837;28;20051;-79
2022/02/13 10:34:04;;;;;;;5.55;3.10;;;;;;;;;;5102045;28;20036;-79
2022/02/13 10:36:30;;;;;;;10.80;3.60;;;;;;;;;;5100841;28;20487;-77
2022/02/13 10:38:58;;;;;;;5.57;3.30;;;;;;;;;;5094779;28;20483;-75
2022/02/13 10:41:27;;;;;;;5.80;3.53;;;;;;;;;;5095679;28;20093;-75
2022/02/13 10:44:01;;;;;;;9.35;3.30;;;;;;;;;;5095063;28;20039;-75
2022/02/13 10:46:31;;;;;;;10.27;3.80;;;;;;;;;;5094601;28;20048;-75
2022/02/13 10:48:57;;;;;;;10.88;3.65;;;;;;;;;;5094391;28;20082;-75
2022/02/13 10:51:24;;;;;;;4.97;3.47;;;;;;;;;;5095292;28;20071;-76
2022/02/13 10:53:52;;;;;;;6.72;3.28;;;;;;;;;;5094475;28;20456;-76
2022/02/13 10:56:20;;;;;;;5.78;2.70;;;;;;;;;;5094633;28;20036;-76
2022/02/13 10:58:47;;;;;;;7.13;3.28;;;;;;;;;;5094897;28;20079;-75
2022/02/13 11:01:16;;;;;;;6.53;3.38;;;;;;;;;;5094526;28;20044;-75
2022/02/13 11:03:44;;;;;;;9.00;3.38;;;;;;;;;;5094956;28;20040;-75
2022/02/13 11:06:10;;;;;;;8.30;3.90;;;;;;;;;;5095170;28;20102;-75
2022/02/13 11:08:41;;;;;;;7.32;3.40;;;;;;;;;;5094201;28;20146;-75
2022/02/13 11:11:07;;;;;;;9.02;3.70;;;;;;;;;;5094126;28;20051;-75
2022/02/13 11:13:35;;;;;;;7.45;3.42;;;;;;;;;;5094120;28;20531;-75
2022/02/13 11:16:02;;;;;;;5.28;3.13;;;;;;;;;;5094977;28;20086;-75
2022/02/13 11:18:33;;;;;;;6.93;3.60;;;;;;;;;;5094927;28;20351;-75
2022/02/13 11:21:00;;;;;;;6.75;3.50;;;;;;;;;;5093854;28;20535;-76
2022/02/13 11:23:27;;;;;;;5.57;3.20;;;;;;;;;;5094860;28;20068;-75
2022/02/13 11:25:56;;;;;;;6.22;3.38;;;;;;;;;;5094069;28;20116;-76
2022/02/13 11:28:26;;;;;;;10.73;3.60;;;;;;;;;;5094887;28;20048;-75
2022/02/13 11:30:56;;;;;;;6.60;3.25;;;;;;;;;;5094626;28;20127;-76
2022/02/13 11:33:48;;;;;;;6.07;3.60;;;;;;;;;;5093749;28;20449;-76
2022/02/13 11:36:14;;;;;;;7.88;3.60;;;;;;;;;;5094325;28;20083;-75
2022/02/13 11:38:59;;;;;;;6.82;3.22;;;;;;;;;;5092505;28;20040;-76
2022/02/13 11:41:59;;;;;;;7.53;4.85;;;;;;;;;;5094378;28;20423;-76
2022/02/13 11:44:32;;;;;;;7.00;3.22;;;;;;;;;;5093374;28;20480;-76
2022/02/13 11:47:01;;;;;;;7.55;3.45;;;;;;;;;;5093567;28;20075;-76
2022/02/13 11:49:28;;;;;;;8.85;3.35;;;;;;;;;;5094042;28;20075;-76
2022/02/13 11:51:56;;;;;;;6.18;3.75;;;;;;;;;;5093474;28;20042;-76
2022/02/13 11:54:54;;;;;;;6.40;2.97;;;;;;;;;;5093114;28;20040;-75
2022/02/13 11:57:22;;;;;;;8.63;3.78;;;;;;;;;;5093128;28;20392;-76
2022/02/13 11:59:51;;;;;;;8.45;3.42;;;;;;;;;;5093702;28;20480;-76
2022/02/13 12:02:44;;;;;;;7.70;3.60;;;;;;;;;;5094073;28;20097;-76
2022/02/13 12:05:16;;;;;;;5.57;3.22;;;;;;;;;;5094022;28;20380;-75
2022/02/13 12:08:01;;;;;;;8.65;3.92;;;;;;;;;;5094151;28;20127;-75
2022/02/13 12:10:30;;;;;;;7.93;4.05;;;;;;;;;;5094259;28;20044;-77
2022/02/13 12:13:13;;;;;;;10.07;3.45;;;;;;;;;;5094243;28;20040;-75
2022/02/13 12:15:42;;;;;;;7.63;3.47;;;;;;;;;;5092861;28;20043;-75
2022/02/13 12:18:13;;;;;;;5.88;3.30;;;;;;;;;;5093947;28;20044;-76
2022/02/13 12:20:40;;;;;;;6.88;3.42;;;;;;;;;;5096598;28;20044;-78
2022/02/13 12:23:08;;;;;;;7.47;3.50;;;;;;;;;;5102282;28;20040;-79
2022/02/13 12:25:37;;;;;;;7.97;3.40;;;;;;;;;;5102031;28;20047;-78
2022/02/13 12:28:05;;;;;;;8.07;3.47;;;;;;;;;;5082950;28;20051;-80
2022/02/13 12:30:32;;;;;;;8.48;3.53;;;;;;;;;;5102451;28;20062;-79
2022/02/13 12:32:59;;;;;;;7.05;3.08;;;;;;;;;;5101987;28;20044;-79
2022/02/13 12:35:32;;;;;;;12.07;3.58;;;;;;;;;;5100922;28;20541;-79
2022/02/13 12:37:59;;;;;;;5.35;3.10;;;;;;;;;;5101084;28;20040;-78
2022/02/13 12:40:28;;;;;;;6.30;3.88;;;;;;;;;;5101854;28;20138;-78
2022/02/13 12:42:57;;;;;;;6.55;3.10;;;;;;;;;;5102747;28;20048;-79
2022/02/13 12:45:26;;;;;;;7.63;3.20;;;;;;;;;;5104627;28;20056;-79
2022/02/13 12:47:55;;;;;;;7.45;3.35;;;;;;;;;;5103283;28;20048;-78
2022/02/13 12:50:23;;;;;;;6.97;3.33;;;;;;;;;;5105447;28;20040;-78
2022/02/13 12:52:51;;;;;;;8.20;3.28;;;;;;;;;;5107758;28;20040;-79
2022/02/13 12:55:21;;;;;;;7.45;2.90;;;;;;;;;;5107760;28;20075;-79
2022/02/13 12:57:52;;;;;;;7.32;3.00;;;;;;;;;;5088932;28;20054;-80
2022/02/13 13:00:21;;;;;;;7.95;3.17;;;;;;;;;;5105211;28;20040;-79
2022/02/13 13:02:52;;;;;;;6.78;3.72;;;;;;;;;;5103024;28;20048;-76
2022/02/13 13:05:21;;;;;;;8.30;3.30;;;;;;;;;;5097646;28;20072;-75
2022/02/13 13:07:48;;;;;;;6.57;3.05;;;;;;;;;;5097229;28;20488;-75
2022/02/13 13:10:24;;;;;;;5.90;3.30;;;;;;;;;;5097481;28;20123;-76
2022/02/13 13:13:05;;;;;;;6.05;2.95;;;;;;;;;;5088357;28;20368;-76
2022/02/13 13:15:33;;;;;;;7.57;3.45;;;;;;;;;;5097428;28;20036;-76
2022/02/13 13:18:00;;;;;;;8.88;3.92;;;;;;;;;;5097950;28;20122;-76
2022/02/13 13:20:28;;;;;;;5.97;3.10;;;;;;;;;;5096556;28;20459;-75
2022/02/13 13:23:14;;;;;;;8.20;3.42;;;;;;;;;;5097594;28;20086;-76
2022/02/13 13:25:44;;;;;;;;;;;;;;;;;;5096994;28;20083;-76
2022/02/13 13:28:12;;;;;;;5.30;3.17;;;;;;;;;;5097556;28;20288;-76
2022/02/13 13:30:38;;;;;;;6.93;3.42;;;;;;;;;;5097591;28;20098;-75
2022/02/13 13:33:05;;;;;;;7.47;2.92;;;;;;;;;;5097266;28;20072;-76
2022/02/13 13:35:32;;;;;;;6.97;2.72;;;;;;;;;;5096966;28;20040;-76
2022/02/13 13:38:00;;;;;;;9.65;2.70;;;;;;;;;;5097147;28;20036;-76
2022/02/13 13:40:29;;;;;;;5.63;2.88;;;;;;;;;;5096492;28;20044;-77
2022/02/13 13:43:09;;;;;;;5.88;2.65;;;;;;;;;;5096576;28;20083;-76
2022/02/13 13:45:36;;;;;;;4.57;2.75;;;;;;;;;;5096341;28;20456;-76
2022/02/13 13:48:04;;;;;;;4.35;3.00;;;;;;;;;;5097465;28;20048;-75
2022/02/13 13:50:33;;;;;;;6.10;2.40;;;;;;;;;;5097275;28;20040;-77
2022/02/13 13:53:00;;;;;;;7.07;3.40;;;;;;;;;;5097054;28;20044;-75
2022/02/13 13:55:27;;;;;;;5.25;2.42;;;;;;;;;;5096961;28;20373;-75
2022/02/13 13:57:53;;;;;;;6.40;3.17;;;;;;;;;;5096642;28;20071;-75
2022/02/13 14:00:22;;;;;;;5.00;2.75;;;;;;;;;;5094886;28;20429;-76
2022/02/13 14:02:49;;;;;;;12.63;7.03;;;;;;;;;;5095462;28;20395;-75
2022/02/13 14:05:17;;;;;;;8.48;3.72;;;;;;;;;;5096618;28;20040;-75
2022/02/13 14:07:44;;;;;;;6.65;3.97;;;;;;;;;;5096324;28;20094;-75
2022/02/13 14:10:10;;;;;;;8.38;3.15;;;;;;;;;;5096540;28;20044;-75
2022/02/13 14:12:37;;;;;;;10.82;9.68;;;;;;;;;;5096273;28;20068;-75
2022/02/13 14:15:04;;;;;;;7.50;5.30;;;;;;;;;;5096079;28;20068;-75
2022/02/13 14:17:31;;;;;;;5.80;3.35;;;;;;;;;;5096334;28;20079;-75
2022/02/13 14:19:58;;;;;;;8.27;2.88;;;;;;;;;;5095461;28;20086;-76
2022/02/13 14:22:24;;;;;;;6.30;2.78;;;;;;;;;;5096085;28;20071;-75
2022/02/13 14:24:51;;;;;;;6.03;2.85;;;;;;;;;;5096044;28;20090;-75
2022/02/13 14:27:18;;;;;;;8.68;3.42;;;;;;;;;;5096157;28;20036;-75
2022/02/13 14:29:44;;;;;;;10.18;5.50;;;;;;;;;;5095276;28;20397;-75
2022/02/13 14:32:11;;;;;;;9.60;4.50;;;;;;;;;;5095747;28;20121;-75
2022/02/13 14:34:39;;;;;;;9.18;4.32;;;;;;;;;;5094942;28;20476;-75
2022/02/13 14:37:07;;;;;;;8.35;3.50;;;;;;;;;;5096037;28;20044;-75
2022/02/13 14:39:34;;;;;;;9.18;2.97;;;;;;;;;;5095839;28;20094;-75
2022/02/13 14:42:00;;;;;;;6.95;3.35;;;;;;;;;;5094790;28;20072;-75
2022/02/13 14:44:27;;;;;;;7.50;3.83;;;;;;;;;;5094964;28;20079;-75